Time;durP1;ratioP1;P1;durP2;ratioP2;P2;SDS_P1;SDS_P2;PMS_P1;PMS_P2;Temp;Humidity;BMP_temperature;BMP_pressure;BME280_temperature;BME280_humidity;BME280_pressure;Samples;Min_cycle;Max_cycle;Signal;HPM_P1;HPM_P2
2023/10/03 00:01:01;;;;;;;48.97;23.05;;;;;;;;;;4885122;29;20037;-76
2023/10/03 00:03:28;;;;;;;41.95;23.17;;;;;;;;;;4894505;29;20033;-77
2023/10/03 00:05:54;;;;;;;45.83;21.45;;;;;;;;;;4877342;29;20387;-77
2023/10/03 00:08:22;;;;;;;38.88;20.75;;;;;;;;;;4880018;29;20097;-77
2023/10/03 00:10:49;;;;;;;43.30;21.63;;;;;;;;;;4895555;29;20041;-82
2023/10/03 00:13:17;;;;;;;43.97;21.40;;;;;;;;;;4891904;29;20397;-83
2023/10/03 00:15:44;;;;;;;40.00;22.00;;;;;;;;;;4889052;29;20403;-84
2023/10/03 00:18:14;;;;;;;41.53;21.15;;;;;;;;;;4883129;29;20140;-83
2023/10/03 00:20:41;;;;;;;41.83;21.50;;;;;;;;;;4882674;29;20063;-81
2023/10/03 00:23:07;;;;;;;47.25;23.90;;;;;;;;;;4869465;29;20547;-82
2023/10/03 00:25:34;;;;;;;41.90;20.67;;;;;;;;;;4881469;29;20053;-80
2023/10/03 00:28:00;;;;;;;45.15;23.55;;;;;;;;;;4886042;29;20599;-83
2023/10/03 00:30:28;;;;;;;43.85;21.90;;;;;;;;;;4889187;29;20033;-83
2023/10/03 00:32:56;;;;;;;45.20;22.38;;;;;;;;;;4873138;29;20047;-83
2023/10/03 00:35:23;;;;;;;47.40;22.17;;;;;;;;;;4872048;29;20028;-83
2023/10/03 00:37:53;;;;;;;42.40;22.48;;;;;;;;;;4885124;29;20037;-82
2023/10/03 00:42:52;;;;;;;44.45;23.17;;;;;;;;;;4889515;29;20040;-83
2023/10/03 00:45:22;;;;;;;40.08;21.20;;;;;;;;;;4867411;29;20047;-82
2023/10/03 00:47:53;;;;;;;52.88;29.13;;;;;;;;;;4871535;29;20483;-76
2023/10/03 00:50:20;;;;;;;87.75;51.15;;;;;;;;;;4888687;29;20025;-76
2023/10/03 00:52:55;;;;;;;46.65;23.05;;;;;;;;;;4893616;29;20479;-77
2023/10/03 00:55:26;;;;;;;58.63;27.63;;;;;;;;;;4888367;29;20041;-75
2023/10/03 00:58:06;;;;;;;44.38;22.73;;;;;;;;;;4879321;29;20055;-84
2023/10/03 01:00:32;;;;;;;40.03;21.27;;;;;;;;;;4882297;29;20043;-85
2023/10/03 01:03:02;;;;;;;46.20;21.98;;;;;;;;;;4892254;29;20033;-84
2023/10/03 01:05:28;;;;;;;44.72;22.15;;;;;;;;;;4888408;29;20047;-86
2023/10/03 01:07:55;;;;;;;50.67;23.13;;;;;;;;;;4879612;29;20029;-84
2023/10/03 01:10:21;;;;;;;45.88;22.95;;;;;;;;;;4879042;29;20049;-85
2023/10/03 01:12:48;;;;;;;45.95;20.65;;;;;;;;;;4867006;29;20040;-86
2023/10/03 01:15:19;;;;;;;44.97;21.73;;;;;;;;;;4878764;29;20069;-85
2023/10/03 01:17:48;;;;;;;47.33;21.40;;;;;;;;;;4881436;29;20520;-84
2023/10/03 01:20:24;;;;;;;43.17;20.95;;;;;;;;;;4888840;29;20046;-81
2023/10/03 01:22:54;;;;;;;40.05;20.83;;;;;;;;;;4894859;29;20195;-84
2023/10/03 01:25:20;;;;;;;44.35;20.38;;;;;;;;;;4880834;29;20028;-86
2023/10/03 01:27:46;;;;;;;44.92;21.75;;;;;;;;;;4883841;29;20040;-87
2023/10/03 01:30:12;;;;;;;43.70;21.83;;;;;;;;;;4880685;29;20088;-80
2023/10/03 01:32:49;;;;;;;41.88;20.95;;;;;;;;;;4896769;29;20475;-84
2023/10/03 01:35:15;;;;;;;46.30;22.45;;;;;;;;;;4886539;29;20089;-86
2023/10/03 01:37:41;;;;;;;42.35;21.52;;;;;;;;;;4883644;29;20059;-85
2023/10/03 01:40:17;;;;;;;42.92;20.17;;;;;;;;;;4882583;29;20051;-85
2023/10/03 01:42:46;;;;;;;41.03;19.80;;;;;;;;;;4887873;29;20040;-85
2023/10/03 01:45:17;;;;;;;46.53;20.00;;;;;;;;;;4891362;29;20045;-85
2023/10/03 01:47:48;;;;;;;43.95;20.27;;;;;;;;;;4902123;29;20041;-86
2023/10/03 01:50:14;;;;;;;40.10;19.17;;;;;;;;;;4885269;29;20055;-87
2023/10/03 01:52:43;;;;;;;45.60;20.30;;;;;;;;;;4895693;29;20467;-86
2023/10/03 01:55:12;;;;;;;43.70;19.88;;;;;;;;;;4884457;29;20029;-82
2023/10/03 01:57:38;;;;;;;42.45;19.55;;;;;;;;;;4877720;29;20049;-85
2023/10/03 02:00:06;;;;;;;48.00;19.90;;;;;;;;;;4880572;29;20112;-89
2023/10/03 02:02:32;;;;;;;41.90;20.23;;;;;;;;;;4878865;29;20036;-88
2023/10/03 02:04:58;;;;;;;50.28;19.35;;;;;;;;;;4877756;29;20041;-86
2023/10/03 02:07:27;;;;;;;44.67;19.63;;;;;;;;;;4890662;29;20097;-85
2023/10/03 02:09:53;;;;;;;43.67;20.48;;;;;;;;;;4888874;29;20041;-84
2023/10/03 02:12:21;;;;;;;43.67;20.70;;;;;;;;;;4878857;29;20070;-79
2023/10/03 02:14:49;;;;;;;39.10;19.50;;;;;;;;;;4877300;29;20039;-86
2023/10/03 02:17:16;;;;;;;42.47;19.23;;;;;;;;;;4890355;29;20047;-83
2023/10/03 02:19:43;;;;;;;41.95;20.33;;;;;;;;;;4887535;29;20454;-83
2023/10/03 02:22:11;;;;;;;40.45;19.20;;;;;;;;;;4889647;29;20048;-82
2023/10/03 02:24:38;;;;;;;42.53;19.95;;;;;;;;;;4878453;29;20036;-83
2023/10/03 02:27:06;;;;;;;39.80;19.40;;;;;;;;;;4891816;29;20115;-84
2023/10/03 02:29:32;;;;;;;44.13;19.60;;;;;;;;;;4887804;29;20060;-84
2023/10/03 02:32:05;;;;;;;37.70;19.27;;;;;;;;;;4887689;29;20104;-84
2023/10/03 02:34:33;;;;;;;38.50;19.52;;;;;;;;;;4894182;29;20032;-79
2023/10/03 02:36:59;;;;;;;37.22;18.48;;;;;;;;;;4891834;29;20052;-84
2023/10/03 02:39:30;;;;;;;40.78;20.50;;;;;;;;;;4884861;29;20056;-81
2023/10/03 02:41:56;;;;;;;43.17;18.85;;;;;;;;;;4887434;29;20100;-83
2023/10/03 02:44:23;;;;;;;37.65;18.73;;;;;;;;;;4882979;29;20129;-84
2023/10/03 02:46:49;;;;;;;40.22;18.60;;;;;;;;;;4891092;29;20467;-84
2023/10/03 02:49:16;;;;;;;40.42;18.17;;;;;;;;;;4880917;29;20053;-79
2023/10/03 02:51:42;;;;;;;43.28;18.67;;;;;;;;;;4883047;29;20112;-85
2023/10/03 02:54:09;;;;;;;41.15;18.95;;;;;;;;;;4897292;29;20531;-83
2023/10/03 02:56:35;;;;;;;41.53;18.45;;;;;;;;;;4891551;29;20140;-84
2023/10/03 02:59:02;;;;;;;46.22;18.52;;;;;;;;;;4881968;29;20045;-86
2023/10/03 03:01:31;;;;;;;40.38;18.90;;;;;;;;;;4889198;29;20096;-79
2023/10/03 03:03:57;;;;;;;40.13;18.48;;;;;;;;;;4881342;29;20040;-88
2023/10/03 03:06:23;;;;;;;38.70;17.85;;;;;;;;;;4880645;29;20484;-85
2023/10/03 03:08:52;;;;;;;34.47;17.17;;;;;;;;;;4888892;29;20051;-87
2023/10/03 03:11:18;;;;;;;41.90;18.30;;;;;;;;;;4898791;29;20039;-88
2023/10/03 03:13:44;;;;;;;37.08;17.08;;;;;;;;;;4870009;29;20092;-83
2023/10/03 03:16:14;;;;;;;39.38;18.88;;;;;;;;;;4885738;29;20048;-83
2023/10/03 03:18:41;;;;;;;39.78;18.70;;;;;;;;;;4876922;29;20093;-84
2023/10/03 03:21:20;;;;;;;36.70;18.15;;;;;;;;;;4895067;29;20503;-81
2023/10/03 03:23:56;;;;;;;35.47;17.73;;;;;;;;;;4884623;29;20125;-83
2023/10/03 03:26:29;;;;;;;40.95;18.65;;;;;;;;;;4893989;29;20491;-84
2023/10/03 03:28:55;;;;;;;36.67;18.05;;;;;;;;;;4883578;29;20199;-84
2023/10/03 03:31:32;;;;;;;39.30;17.88;;;;;;;;;;4890116;29;20040;-82
2023/10/03 03:33:58;;;;;;;41.78;19.20;;;;;;;;;;4888865;29;20032;-86
2023/10/03 03:36:29;;;;;;;35.20;17.00;;;;;;;;;;4880168;29;20040;-85
2023/10/03 03:38:56;;;;;;;39.42;17.67;;;;;;;;;;4880316;29;20033;-81
2023/10/03 03:41:22;;;;;;;35.55;17.38;;;;;;;;;;4895793;29;20033;-84
2023/10/03 03:43:49;;;;;;;38.67;17.80;;;;;;;;;;4887226;29;20091;-83
2023/10/03 03:46:15;;;;;;;37.83;17.70;;;;;;;;;;4879054;29;20032;-83
2023/10/03 03:48:41;;;;;;;40.25;17.25;;;;;;;;;;4887276;29;20048;-82
2023/10/03 03:51:11;;;;;;;44.13;18.02;;;;;;;;;;4882341;29;20112;-85
2023/10/03 03:53:37;;;;;;;38.30;17.48;;;;;;;;;;4884783;29;20096;-82
2023/10/03 03:56:07;;;;;;;40.30;18.85;;;;;;;;;;4881934;29;20033;-83
2023/10/03 03:58:34;;;;;;;45.80;18.70;;;;;;;;;;4891619;29;20044;-88
2023/10/03 04:01:00;;;;;;;41.47;17.55;;;;;;;;;;4893361;29;20033;-82
2023/10/03 04:03:34;;;;;;;38.72;17.48;;;;;;;;;;4890327;29;20066;-84
2023/10/03 04:06:01;;;;;;;43.30;17.80;;;;;;;;;;4883789;29;20120;-85
2023/10/03 04:08:27;;;;;;;38.95;18.92;;;;;;;;;;4886669;29;20044;-83
2023/10/03 04:10:53;;;;;;;42.35;17.52;;;;;;;;;;4881663;29;20054;-83
2023/10/03 04:13:20;;;;;;;35.28;17.25;;;;;;;;;;4895001;29;20041;-85
2023/10/03 04:15:47;;;;;;;40.95;18.58;;;;;;;;;;4889755;29;20029;-85
2023/10/03 04:18:15;;;;;;;40.55;17.58;;;;;;;;;;4870318;29;20029;-81
2023/10/03 04:20:44;;;;;;;35.88;16.85;;;;;;;;;;4881963;29;20531;-76
2023/10/03 04:23:11;;;;;;;41.50;19.80;;;;;;;;;;4888575;29;20061;-78
2023/10/03 04:25:40;;;;;;;40.50;19.45;;;;;;;;;;4895577;29;20039;-77
2023/10/03 04:28:07;;;;;;;37.38;15.75;;;;;;;;;;4873289;29;20572;-79
2023/10/03 04:30:33;;;;;;;36.63;15.80;;;;;;;;;;4893175;29;20534;-84
2023/10/03 04:32:59;;;;;;;43.70;15.60;;;;;;;;;;4869732;29;20031;-80
2023/10/03 04:35:26;;;;;;;33.10;14.93;;;;;;;;;;4883303;29;20029;-82
2023/10/03 04:37:52;;;;;;;33.97;13.65;;;;;;;;;;4879409;29;20045;-80
2023/10/03 04:40:24;;;;;;;36.45;14.25;;;;;;;;;;4879394;29;20048;-82
2023/10/03 04:42:50;;;;;;;35.92;14.40;;;;;;;;;;4885011;29;20020;-84
2023/10/03 04:45:19;;;;;;;37.28;15.23;;;;;;;;;;4891131;29;20036;-84
2023/10/03 04:47:46;;;;;;;33.63;13.82;;;;;;;;;;4892536;29;20116;-85
2023/10/03 04:50:16;;;;;;;40.80;17.42;;;;;;;;;;4889612;29;20387;-78
2023/10/03 04:52:42;;;;;;;39.00;17.90;;;;;;;;;;4885165;29;20061;-79
2023/10/03 04:55:08;;;;;;;38.67;15.13;;;;;;;;;;4889923;29;20115;-83
2023/10/03 04:57:35;;;;;;;38.95;15.07;;;;;;;;;;4897296;29;20033;-83
2023/10/03 05:00:04;;;;;;;29.23;13.38;;;;;;;;;;4896733;29;20083;-83
2023/10/03 05:02:30;;;;;;;37.83;14.85;;;;;;;;;;4897018;29;20037;-82
2023/10/03 05:04:56;;;;;;;31.95;14.43;;;;;;;;;;4886377;29;20625;-82
2023/10/03 05:07:26;;;;;;;50.85;17.10;;;;;;;;;;4884547;29;20498;-83
2023/10/03 05:09:52;;;;;;;41.22;15.43;;;;;;;;;;4881904;29;20068;-81
2023/10/03 05:12:20;;;;;;;41.20;15.88;;;;;;;;;;4879735;29;20531;-77
2023/10/03 05:14:46;;;;;;;41.85;16.02;;;;;;;;;;4879702;29;20044;-84
2023/10/03 05:17:13;;;;;;;45.85;17.52;;;;;;;;;;4885341;29;20041;-82
2023/10/03 05:19:39;;;;;;;42.00;16.55;;;;;;;;;;4879255;29;20053;-83
2023/10/03 05:22:08;;;;;;;48.45;17.75;;;;;;;;;;4888587;29;20052;-86
2023/10/03 05:24:34;;;;;;;42.13;16.17;;;;;;;;;;4892075;29;20032;-81
2023/10/03 05:27:00;;;;;;;50.05;17.42;;;;;;;;;;4891960;29;20044;-79
2023/10/03 05:29:27;;;;;;;49.05;17.00;;;;;;;;;;4889795;29;20050;-89
2023/10/03 05:31:54;;;;;;;43.72;18.25;;;;;;;;;;4869400;29;20124;-76
2023/10/03 05:34:20;;;;;;;47.33;18.08;;;;;;;;;;4885517;29;20037;-73
2023/10/03 05:36:47;;;;;;;55.17;22.63;;;;;;;;;;4883740;29;20057;-73
2023/10/03 05:39:15;;;;;;;43.05;17.45;;;;;;;;;;4880972;29;20476;-73
2023/10/03 05:41:41;;;;;;;42.08;17.75;;;;;;;;;;4867253;29;20032;-75
2023/10/03 05:44:13;;;;;;;39.08;17.02;;;;;;;;;;4886962;29;20024;-70
2023/10/03 05:46:42;;;;;;;43.85;17.90;;;;;;;;;;4874914;29;20040;-71
2023/10/03 05:49:09;;;;;;;44.35;17.23;;;;;;;;;;4881603;29;20063;-71
2023/10/03 05:51:35;;;;;;;43.08;15.88;;;;;;;;;;4881065;29;20308;-72
2023/10/03 05:54:02;;;;;;;45.22;17.35;;;;;;;;;;4877699;29;20085;-68
2023/10/03 05:56:28;;;;;;;38.20;15.93;;;;;;;;;;4870808;29;20025;-72
2023/10/03 05:58:54;;;;;;;39.03;15.85;;;;;;;;;;4884602;29;20100;-72
2023/10/03 06:01:21;;;;;;;40.08;16.67;;;;;;;;;;4854170;29;20035;-75
2023/10/03 06:03:47;;;;;;;49.95;16.77;;;;;;;;;;4884085;29;20049;-76
2023/10/03 06:06:14;;;;;;;38.65;16.38;;;;;;;;;;4886788;29;20032;-80
2023/10/03 06:08:40;;;;;;;49.33;18.95;;;;;;;;;;4868911;29;20048;-75
2023/10/03 06:11:08;;;;;;;43.70;16.00;;;;;;;;;;4884524;29;20048;-71
2023/10/03 06:13:34;;;;;;;44.55;14.63;;;;;;;;;;4878836;29;20033;-70
2023/10/03 06:16:00;;;;;;;33.78;13.52;;;;;;;;;;4867801;29;20064;-68
2023/10/03 06:18:29;;;;;;;37.33;13.27;;;;;;;;;;4867754;29;20513;-70
2023/10/03 06:20:57;;;;;;;39.45;12.55;;;;;;;;;;4891217;29;20045;-74
2023/10/03 06:23:24;;;;;;;32.13;11.10;;;;;;;;;;4863602;29;20132;-71
2023/10/03 06:25:51;;;;;;;30.00;11.23;;;;;;;;;;4871441;29;20066;-75
2023/10/03 06:28:17;;;;;;;26.83;10.52;;;;;;;;;;4862220;29;20037;-73
2023/10/03 06:30:43;;;;;;;23.58;9.43;;;;;;;;;;4873443;29;20042;-73
2023/10/03 06:33:10;;;;;;;29.80;9.60;;;;;;;;;;4874251;29;20097;-71
2023/10/03 06:35:37;;;;;;;27.98;8.20;;;;;;;;;;4866687;29;20485;-72
2023/10/03 06:38:05;;;;;;;31.20;9.60;;;;;;;;;;4875215;29;20060;-72
2023/10/03 06:40:31;;;;;;;26.58;8.75;;;;;;;;;;4861401;29;20069;-72
2023/10/03 06:42:57;;;;;;;29.10;8.45;;;;;;;;;;4871564;29;20033;-74
2023/10/03 06:45:23;;;;;;;27.80;7.95;;;;;;;;;;4864905;29;20482;-75
2023/10/03 06:47:49;;;;;;;26.63;7.78;;;;;;;;;;4866257;29;20038;-74
2023/10/03 06:50:17;;;;;;;23.80;7.72;;;;;;;;;;4862289;29;20038;-74
2023/10/03 06:52:43;;;;;;;20.40;7.43;;;;;;;;;;4869844;29;20129;-74
2023/10/03 06:55:15;;;;;;;24.23;8.20;;;;;;;;;;4863460;29;20127;-75
2023/10/03 06:57:41;;;;;;;24.10;8.63;;;;;;;;;;4873676;29;20053;-73
2023/10/03 07:00:13;;;;;;;29.35;8.52;;;;;;;;;;4862903;29;20612;-73
2023/10/03 07:02:39;;;;;;;25.75;8.95;;;;;;;;;;4873255;29;20085;-73
2023/10/03 07:05:05;;;;;;;37.90;10.63;;;;;;;;;;4863741;29;20191;-73
2023/10/03 07:07:31;;;;;;;51.67;17.48;;;;;;;;;;4870497;29;20041;-73
2023/10/03 07:09:57;;;;;;;33.50;8.27;;;;;;;;;;4878699;29;20041;-74
2023/10/03 07:12:25;;;;;;;39.22;8.18;;;;;;;;;;4877310;29;20037;-74
2023/10/03 07:14:51;;;;;;;46.95;8.88;;;;;;;;;;4867681;29;20384;-74
2023/10/03 07:17:17;;;;;;;36.03;9.05;;;;;;;;;;4869201;29;20030;-75
2023/10/03 07:19:46;;;;;;;32.80;7.72;;;;;;;;;;4874353;29;20045;-75
2023/10/03 07:22:12;;;;;;;26.05;6.88;;;;;;;;;;4875352;29;20094;-75
2023/10/03 07:24:39;;;;;;;29.30;7.50;;;;;;;;;;4869654;29;20052;-75
2023/10/03 07:27:07;;;;;;;31.10;6.45;;;;;;;;;;4873982;29;20041;-76
2023/10/03 07:29:33;;;;;;;26.88;7.03;;;;;;;;;;4872076;29;20075;-75
2023/10/03 07:31:59;;;;;;;24.50;5.20;;;;;;;;;;4861450;29;20052;-76
2023/10/03 07:34:25;;;;;;;16.77;5.10;;;;;;;;;;4868259;29;20037;-75
2023/10/03 07:36:51;;;;;;;20.10;3.72;;;;;;;;;;4860333;29;20392;-75
2023/10/03 07:39:17;;;;;;;21.17;4.95;;;;;;;;;;4861844;29;20049;-76
2023/10/03 07:41:44;;;;;;;16.88;4.90;;;;;;;;;;4867687;29;20029;-76
2023/10/03 07:44:10;;;;;;;13.75;3.53;;;;;;;;;;4870858;29;20142;-75
2023/10/03 07:46:36;;;;;;;17.77;4.07;;;;;;;;;;4864651;29;20124;-73
2023/10/03 07:49:02;;;;;;;16.63;3.72;;;;;;;;;;4869535;29;20143;-75
2023/10/03 07:51:31;;;;;;;15.95;2.97;;;;;;;;;;4872675;29;20484;-76
2023/10/03 07:53:57;;;;;;;11.10;3.03;;;;;;;;;;4860215;29;20029;-75
2023/10/03 07:56:33;;;;;;;14.07;3.25;;;;;;;;;;4866255;29;20040;-77
2023/10/03 07:59:04;;;;;;;19.20;2.97;;;;;;;;;;4873858;29;20088;-76
2023/10/03 08:01:30;;;;;;;16.48;3.08;;;;;;;;;;4869885;29;20478;-79
2023/10/03 08:03:59;;;;;;;11.88;2.80;;;;;;;;;;4865959;29;20395;-76
2023/10/03 08:06:28;;;;;;;11.57;2.78;;;17.00;99.90;;;;;;4865975;29;20033;-75
2023/10/03 08:09:00;;;;;;;14.60;2.45;;;;;;;;;;4863445;29;20500;-75
2023/10/03 08:11:30;;;;;;;17.90;3.25;;;;;;;;;;4869162;29;20380;-72
2023/10/03 08:13:56;;;;;;;14.13;2.13;;;;;;;;;;4862345;29;20033;-71
2023/10/03 08:16:23;;;;;;;19.17;3.15;;;;;;;;;;4863073;29;20040;-73
2023/10/03 08:18:58;;;;;;;12.77;2.05;;;;;;;;;;4860414;29;20403;-76
2023/10/03 08:21:28;;;;;;;35.30;6.97;;;;;;;;;;4863744;29;20060;-76
2023/10/03 08:23:55;;;;;;;27.05;3.75;;;17.40;99.90;;;;;;4884462;29;20040;-81
2023/10/03 08:26:21;;;;;;;34.97;3.53;;;;;;;;;;4889933;29;20112;-73
2023/10/03 08:28:59;;;;;;;13.98;1.70;;;17.30;99.90;;;;;;4880614;29;20045;-76
2023/10/03 08:31:26;;;;;;;15.85;2.42;;;;;;;;;;4879388;29;20200;-77
2023/10/03 08:33:55;;;;;;;14.77;1.80;;;;;;;;;;4878257;29;20035;-76
2023/10/03 08:36:27;;;;;;;4.45;1.25;;;;;;;;;;4896206;29;20150;-72
2023/10/03 08:39:04;;;;;;;14.98;1.77;;;;;;;;;;4882113;29;20093;-72
2023/10/03 08:41:45;;;;;;;7.75;1.20;;;;;;;;;;4879119;29;20033;-72
2023/10/03 08:44:14;;;;;;;8.95;1.75;;;;;;;;;;4878116;29;20029;-73
2023/10/03 08:46:49;;;;;;;11.05;1.10;;;;;;;;;;4881717;29;20115;-73
2023/10/03 08:49:19;;;;;;;13.60;1.45;;;16.60;99.90;;;;;;4883908;29;20033;-75
2023/10/03 08:51:49;;;;;;;15.43;3.08;;;;;;;;;;4880855;29;20028;-75
2023/10/03 08:54:15;;;;;;;10.43;1.05;;;;;;;;;;4891259;29;20036;-79
2023/10/03 08:56:41;;;;;;;24.58;4.53;;;;;;;;;;4878907;29;20544;-80
2023/10/03 08:59:15;;;;;;;22.23;3.92;;;;;;;;;;4893220;29;20028;-76
2023/10/03 09:01:46;;;;;;;78.75;15.95;;;;;;;;;;4891027;29;20024;-73
2023/10/03 09:04:18;;;;;;;9.70;2.72;;;;;;;;;;4897767;29;20423;-75
2023/10/03 09:06:45;;;;;;;29.67;6.65;;;;;;;;;;4872006;29;20722;-80
2023/10/03 09:09:13;;;;;;;11.75;1.88;;;;;;;;;;4860951;29;20039;-68
2023/10/03 09:11:41;;;;;;;8.68;1.85;;;;;;;;;;4882976;29;20037;-72
2023/10/03 09:14:08;;;;;;;8.40;1.20;;;;;;;;;;4881728;29;20025;-72
2023/10/03 09:16:40;;;;;;;10.65;0.85;;;;;;;;;;4861365;29;20491;-75
2023/10/03 09:19:09;;;;;;;8.70;0.80;;;;;;;;;;4887758;29;20044;-73
2023/10/03 09:21:35;;;;;;;6.20;0.63;;;;;;;;;;4888111;29;20068;-75
2023/10/03 09:24:09;;;;;;;11.63;0.80;;;;;;;;;;4869474;29;20550;-71
2023/10/03 09:26:45;;;;;;;3.75;1.15;;;;;;;;;;4882392;29;20087;-72
2023/10/03 09:29:31;;;;;;;4.25;0.90;;;;;;;;;;4891889;29;20043;-70
2023/10/03 09:31:58;;;;;;;3.15;0.70;;;;;;;;;;4881529;29;20033;-72
2023/10/03 09:34:30;;;;;;;7.00;0.90;;;;;;;;;;4881448;29;20055;-70
2023/10/03 09:37:02;;;;;;;5.45;0.80;;;;;;;;;;4891411;29;20112;-69
2023/10/03 09:39:29;;;;;;;6.05;0.70;;;;;;;;;;4860110;29;20052;-72
2023/10/03 09:41:57;;;;;;;7.38;1.17;;;;;;;;;;4884692;29;20032;-72
2023/10/03 09:44:30;;;;;;;3.72;0.50;;;;;;;;;;4870978;29;20049;-70
2023/10/03 09:47:06;;;;;;;2.42;0.47;;;;;;;;;;4888496;29;20479;-69
2023/10/03 09:49:42;;;;;;;8.35;0.88;;;;;;;;;;4885363;29;20554;-68
2023/10/03 09:52:16;;;;;;;9.07;1.02;;;;;;;;;;4877397;29;20029;-71
2023/10/03 09:54:43;;;;;;;4.68;1.83;;;;;;;;;;4881487;29;20037;-70
2023/10/03 09:57:16;;;;;;;3.17;0.80;;;;;;;;;;4871606;29;20028;-71
2023/10/03 09:59:46;;;;;;;4.38;0.77;;;;;;;;;;4883809;29;20506;-70
2023/10/03 10:02:14;;;;;;;5.63;0.88;;;;;;;;;;4892454;29;20143;-69
2023/10/03 10:04:41;;;;;;;4.60;0.80;;;;;;;;;;4883587;29;20017;-69
2023/10/03 10:07:16;;;;;;;5.68;1.05;;;;;;;;;;4868186;29;20084;-69
2023/10/03 10:09:47;;;;;;;4.05;1.02;;;;;;;;;;4878993;29;20037;-67
2023/10/03 10:12:15;;;;;;;4.60;1.17;;;;;;;;;;4894120;29;20024;-70
2023/10/03 10:15:00;;;;;;;4.82;0.80;;;;;;;;;;4889465;29;20109;-72
2023/10/03 10:17:49;;;;;;;6.57;1.00;;;;;;;;;;4886105;29;20032;-68
2023/10/03 10:20:38;;;;;;;7.95;1.35;;;;;;;;;;4893151;29;20601;-68
2023/10/03 10:23:06;;;;;;;7.50;0.98;;;;;;;;;;4889011;29;20063;-69
2023/10/03 10:25:42;;;;;;;8.63;1.50;;;;;;;;;;4864274;29;20041;-68
2023/10/03 10:28:09;;;;;;;14.60;7.25;;;;;;;;;;4880905;29;20074;-68
2023/10/03 10:30:36;;;;;;;10.50;2.05;;;;;;;;;;4880510;29;20036;-73
2023/10/03 10:33:18;;;;;;;8.43;1.23;;;;;;;;;;4860612;29;20127;-75
2023/10/03 10:35:49;;;;;;;6.73;1.40;;;;;;;;;;4884077;29;20033;-84
2023/10/03 10:38:15;;;;;;;6.80;1.17;;;;;;;;;;4890597;29;20297;-74
2023/10/03 10:41:22;;;;;;;6.55;1.38;;;16.50;99.90;;;;;;4863399;29;20136;-74
2023/10/03 10:44:07;;;;;;;6.95;1.52;;;;;;;;;;4886217;29;20081;-75
2023/10/03 10:46:35;;;;;;;4.65;1.20;;;;;;;;;;4885726;29;20044;-75
2023/10/03 10:49:06;;;;;;;6.65;1.95;;;;;;;;;;4866067;29;20127;-75
2023/10/03 10:51:32;;;;;;;3.63;0.68;;;;;;;;;;4879410;29;20045;-76
2023/10/03 10:53:58;;;;;;;4.80;1.20;;;;;;;;;;4885009;29;20052;-76
2023/10/03 10:56:28;;;;;;;5.53;1.42;;;;;;;;;;4881461;29;20106;-76
2023/10/03 10:59:04;;;;;;;3.40;1.17;;;;;;;;;;4882931;29;20128;-76
2023/10/03 11:01:30;;;;;;;4.05;1.20;;;;;;;;;;4883597;29;20028;-76
2023/10/03 11:03:56;;;;;;;5.47;1.33;;;;;;;;;;4871661;29;20037;-75
2023/10/03 11:06:23;;;;;;;7.47;1.52;;;;;;;;;;4883123;29;20045;-75
2023/10/03 11:08:52;;;;;;;11.27;1.45;;;;;;;;;;4893688;29;20036;-75
2023/10/03 11:11:19;;;;;;;4.90;1.40;;;;;;;;;;4888713;29;20033;-75
2023/10/03 11:13:53;;;;;;;7.97;1.48;;;;;;;;;;4871862;29;20392;-76
2023/10/03 11:16:26;;;;;;;5.13;1.42;;;;;;;;;;4891036;29;20373;-75
2023/10/03 11:18:54;;;;;;;5.75;1.50;;;;;;;;;;4875702;29;20413;-75
2023/10/03 11:21:21;;;;;;;3.75;1.63;;;;;;;;;;4876272;29;20036;-75
2023/10/03 11:24:13;;;;;;;7.35;2.10;;;15.50;99.90;;;;;;4881412;29;20076;-76
2023/10/03 11:26:46;;;;;;;6.55;1.95;;;;;;;;;;4895722;29;20037;-75
2023/10/03 11:29:14;;;;;;;7.57;2.28;;;;;;;;;;4883400;29;20124;-75
2023/10/03 11:31:40;;;;;;;10.45;2.28;;;;;;;;;;4870689;29;20032;-75
2023/10/03 11:34:07;;;;;;;9.95;2.58;;;;;;;;;;4871291;29;20108;-75
2023/10/03 11:36:46;;;;;;;7.32;2.80;;;;;;;;;;4880643;29;20064;-75
2023/10/03 11:39:23;;;;;;;9.55;2.55;;;;;;;;;;4888863;29;20519;-74
2023/10/03 11:41:49;;;;;;;9.68;2.20;;;;;;;;;;4882352;29;20511;-76
2023/10/03 11:44:19;;;;;;;7.03;2.42;;;;;;;;;;4881960;29;20048;-77
2023/10/03 11:46:46;;;;;;;14.70;8.90;;;;;;;;;;4888908;29;20028;-78
2023/10/03 11:49:13;;;;;;;13.57;4.38;;;;;;;;;;4882613;29;20131;-82
2023/10/03 11:51:42;;;;;;;10.35;2.13;;;;;;;;;;4891362;29;20025;-79
2023/10/03 11:54:08;;;;;;;9.95;2.70;;;;;;;;;;4883408;29;20029;-79
2023/10/03 11:56:42;;;;;;;11.27;3.15;;;;;;;;;;4882254;29;20511;-78
2023/10/03 11:59:08;;;;;;;5.97;1.90;;;;;;;;;;4888732;29;20092;-79
2023/10/03 12:01:35;;;;;;;11.18;2.13;;;;;;;;;;4876054;29;20153;-80
2023/10/03 12:04:01;;;;;;;7.68;2.05;;;;;;;;;;4883936;29;20093;-81
2023/10/03 12:06:27;;;;;;;9.48;2.78;;;;;;;;;;4893433;29;20080;-77
2023/10/03 12:08:54;;;;;;;9.57;2.25;;;;;;;;;;4881328;29;20029;-81
2023/10/03 12:11:20;;;;;;;8.07;2.22;;;;;;;;;;4887839;29;20096;-79
2023/10/03 12:13:46;;;;;;;9.23;2.78;;;;;;;;;;4887026;29;20060;-80
2023/10/03 12:16:12;;;;;;;7.05;2.08;;;;;;;;;;4870748;29;20095;-79
2023/10/03 12:18:38;;;;;;;8.93;2.47;;;;;;;;;;4862603;29;20048;-78
2023/10/03 12:21:05;;;;;;;7.90;2.05;;;;;;;;;;4882882;29;20040;-77
2023/10/03 12:23:31;;;;;;;10.40;1.77;;;;;;;;;;4886565;29;20136;-81
2023/10/03 12:25:58;;;;;;;10.30;1.88;;;;;;;;;;4897830;29;20041;-81
2023/10/03 12:28:24;;;;;;;9.73;1.70;;;;;;;;;;4862420;29;20052;-80
2023/10/03 12:30:51;;;;;;;7.20;1.48;;;;;;;;;;4877811;29;20092;-83
2023/10/03 12:33:19;;;;;;;12.90;2.20;;;;;;;;;;4871969;29;20071;-80
2023/10/03 12:35:48;;;;;;;11.45;4.90;;;;;;;;;;4886812;29;20029;-86
2023/10/03 12:38:15;;;;;;;18.92;7.47;;;;;;;;;;4874209;29;20040;-80
2023/10/03 12:40:43;;;;;;;8.27;2.30;;;;;;;;;;4875969;29;20503;-84
2023/10/03 12:43:10;;;;;;;11.52;3.08;;;;;;;;;;4880769;29;20035;-81
2023/10/03 12:45:36;;;;;;;11.10;2.17;;;;;;;;;;4879894;29;20036;-87
2023/10/03 12:48:03;;;;;;;12.57;2.17;;;;;;;;;;4885815;29;20041;-85
2023/10/03 12:50:29;;;;;;;9.48;1.92;;;;;;;;;;4891547;29;20115;-83
2023/10/03 12:52:56;;;;;;;7.60;1.75;;;;;;;;;;4888842;29;20032;-82
2023/10/03 12:55:23;;;;;;;10.75;2.20;;;;;;;;;;4882921;29;20092;-77
2023/10/03 12:57:50;;;;;;;9.00;2.35;;;;;;;;;;4895077;29;20039;-78
2023/10/03 13:00:20;;;;;;;11.85;2.50;;;;;;;;;;4895339;29;20029;-80
2023/10/03 13:02:49;;;;;;;12.30;2.80;;;;;;;;;;4879047;29;20044;-81
2023/10/03 13:05:15;;;;;;;7.18;1.85;;;;;;;;;;4873099;29;20507;-79
2023/10/03 13:07:45;;;;;;;8.25;2.15;;;;;;;;;;4893814;29;20041;-77
2023/10/03 13:10:12;;;;;;;11.95;2.05;;;;;;;;;;4885540;29;20284;-76
2023/10/03 13:12:42;;;;;;;5.43;1.88;;;;;;;;;;4885540;29;20704;-78
2023/10/03 13:15:14;;;;;;;10.40;2.53;;;;;;;;;;4876409;29;20039;-79
2023/10/03 13:17:40;;;;;;;;;;;;;;;;;;4871860;29;20132;-80
2023/10/03 13:20:08;;;;;;;9.40;2.47;;;;;;;;;;4885195;29;19911;-82
2023/10/03 13:22:34;;;;;;;6.63;1.83;;;;;;;;;;4861816;29;20057;-82
2023/10/03 13:25:00;;;;;;;10.05;2.08;;;;;;;;;;4878278;29;20037;-81
2023/10/03 13:27:26;;;;;;;9.82;1.50;;;;;;;;;;4891671;29;20064;-82
2023/10/03 13:29:52;;;;;;;12.50;1.85;;;;;;;;;;4887811;29;20050;-83
2023/10/03 13:32:20;;;;;;;7.13;1.55;;;;;;;;;;4893939;29;20095;-82
2023/10/03 13:34:46;;;;;;;4.80;1.45;;;;;;;;;;4882628;29;20081;-83
2023/10/03 13:37:12;;;;;;;6.25;1.48;;;;;;;;;;4868280;29;20407;-82
2023/10/03 13:39:39;;;;;;;4.07;1.05;;;;;;;;;;4886287;29;20036;-82
2023/10/03 13:42:07;;;;;;;3.15;1.27;;;;;;;;;;4875076;29;20052;-79
2023/10/03 13:44:33;;;;;;;8.15;1.67;;;;;;;;;;4880950;29;20119;-77
2023/10/03 13:47:00;;;;;;;8.50;2.13;;;;;;;;;;4874741;29;20088;-80
2023/10/03 13:49:26;;;;;;;8.10;2.00;;;;;;;;;;4883382;29;20075;-79
2023/10/03 13:51:52;;;;;;;8.98;1.92;;;;;;;;;;4890649;29;20440;-80
2023/10/03 13:54:18;;;;;;;4.47;1.67;;;;;;;;;;4887230;29;20425;-79
2023/10/03 13:56:44;;;;;;;4.93;1.92;;;;;;;;;;4891339;29;20041;-80
2023/10/03 13:59:10;;;;;;;6.45;1.40;;;;;;;;;;4887414;29;20394;-79
2023/10/03 14:01:36;;;;;;;9.43;2.28;;;;;;;;;;4885779;29;20105;-79
2023/10/03 14:04:05;;;;;;;8.88;1.80;;;;;;;;;;4884114;29;20033;-79
2023/10/03 14:06:33;;;;;;;4.57;1.40;;;;;;;;;;4885251;29;20081;-80
2023/10/03 14:08:59;;;;;;;8.98;1.50;;;;;;;;;;4865308;29;20123;-81
2023/10/03 14:11:26;;;;;;;5.10;1.48;;;;;;;;;;4885983;29;20102;-78
2023/10/03 14:13:53;;;;;;;8.52;1.23;;;;;;;;;;4863517;29;20132;-80
2023/10/03 14:16:21;;;;;;;10.50;1.60;;;;;;;;;;4884230;29;20028;-81
2023/10/03 14:18:51;;;;;;;9.32;1.70;;;;;;;;;;4881125;29;20153;-80
2023/10/03 14:21:17;;;;;;;7.32;1.52;;;;;;;;;;4879173;29;20068;-78
2023/10/03 14:23:48;;;;;;;9.70;1.90;;;;;;;;;;4869764;29;20087;-80
2023/10/03 14:26:14;;;;;;;11.48;2.17;;;;;;;;;;4885032;29;20025;-80
2023/10/03 14:28:40;;;;;;;8.07;2.75;;;;;;;;;;4882940;29;20097;-79
2023/10/03 14:31:06;;;;;;;11.85;2.22;;;;;;;;;;4882075;29;20043;-80
2023/10/03 14:33:32;;;;;;;18.48;3.05;;;;;;;;;;4884645;29;20111;-80
2023/10/03 14:36:00;;;;;;;12.90;2.38;;;;;;;;;;4863620;29;20049;-81